createdAt,value
2023-02-04T00:01:25.512Z,100834.02
2023-02-04T00:03:53.880Z,100854.56
2023-02-04T00:06:22.272Z,100861.34
2023-02-04T00:08:50.596Z,100867.90
2023-02-04T00:11:19.214Z,100874.10
2023-02-04T00:13:47.838Z,100882.13
2023-02-04T00:16:16.234Z,100894.38
2023-02-04T00:18:44.630Z,100904.48
2023-02-04T00:21:13.135Z,100917.27
2023-02-04T00:23:42.440Z,100934.26
2023-02-04T00:26:11.573Z,100954.36
2023-02-04T00:28:43.985Z,100966.70
2023-02-04T00:31:12.843Z,100974.74
2023-02-04T00:33:43.111Z,100988.35
2023-02-04T00:36:11.297Z,100992.71
2023-02-04T00:38:39.897Z,101004.58
2023-02-04T00:41:08.118Z,101018.73
2023-02-04T00:43:36.395Z,101036.25
2023-02-04T00:46:05.087Z,101043.27
2023-02-04T00:48:34.516Z,101053.45
2023-02-04T00:51:03.095Z,101057.09
2023-02-04T00:53:31.470Z,101061.70
2023-02-04T00:56:00.273Z,101076.24
2023-02-04T00:58:30.696Z,101089.40
2023-02-04T01:00:59.358Z,101098.52
2023-02-04T01:03:27.441Z,101116.14
2023-02-04T01:05:55.700Z,101125.36
2023-02-04T01:08:24.188Z,101135.39
2023-02-04T01:10:58.644Z,101143.45
2023-02-04T01:13:27.100Z,101150.60
2023-02-04T01:15:55.744Z,101157.61
2023-02-04T01:18:25.691Z,101161.80
2023-02-04T01:20:54.226Z,101173.83
2023-02-04T01:23:22.505Z,101185.30
2023-02-04T01:25:50.675Z,101198.95
2023-02-04T01:28:19.186Z,101208.25
2023-02-04T01:30:50.491Z,101219.65
2023-02-04T01:33:19.412Z,101228.77
2023-02-04T01:35:47.742Z,101240.64
2023-02-04T01:38:16.033Z,101257.38
2023-02-04T01:40:45.154Z,101266.37
2023-02-04T01:43:14.060Z,101267.63
2023-02-04T01:45:42.691Z,101275.20
2023-02-04T01:48:12.953Z,101281.69
2023-02-04T01:50:41.408Z,101294.83
2023-02-04T01:53:10.111Z,101305.66
2023-02-04T01:55:38.726Z,101320.09
2023-02-04T01:58:11.342Z,101332.20
2023-02-04T02:00:40.581Z,101338.70
2023-02-04T02:03:11.500Z,101340.92
2023-02-04T02:05:49.891Z,101348.32
2023-02-04T02:08:19.388Z,101361.10
2023-02-04T02:10:49.830Z,101373.39
2023-02-04T02:13:19.992Z,101380.60
2023-02-04T02:15:48.919Z,101391.05
2023-02-04T02:18:17.457Z,101402.93
2023-02-04T02:20:46.427Z,101412.58
2023-02-04T02:23:48.327Z,101422.56
2023-02-04T02:26:18.396Z,101433.92
2023-02-04T02:28:48.092Z,101445.67
2023-02-04T02:31:19.223Z,101458.05
2023-02-04T02:33:51.104Z,101466.63
2023-02-04T02:36:24.101Z,101462.58
2023-02-04T02:38:52.495Z,101470.82
2023-02-04T02:41:21.020Z,101483.09
2023-02-04T02:43:49.336Z,101492.45
2023-02-04T02:46:17.793Z,101508.20
2023-02-04T02:48:46.368Z,101521.91
2023-02-04T02:51:14.861Z,101525.78
2023-02-04T02:53:43.219Z,101529.31
2023-02-04T02:56:11.697Z,101541.21
2023-02-04T02:58:39.922Z,101547.43
2023-02-04T03:01:10.189Z,101559.44
2023-02-04T03:03:43.818Z,101566.77
2023-02-04T03:06:23.716Z,101574.27
2023-02-04T03:08:55.507Z,101588.87
2023-02-04T03:11:26.518Z,101605.04
2023-02-04T03:13:57.547Z,101611.21
2023-02-04T03:16:26.184Z,101624.48
2023-02-04T03:18:54.582Z,101635.72
2023-02-04T03:21:23.212Z,101646.65
2023-02-04T03:23:51.771Z,101652.05
2023-02-04T03:26:20.160Z,101648.65
2023-02-04T03:28:48.972Z,101660.19
2023-02-04T03:31:17.595Z,101671.81
2023-02-04T03:33:46.194Z,101681.75
2023-02-04T03:36:14.641Z,101689.77
2023-02-04T03:38:43.241Z,101696.93
2023-02-04T03:41:14.035Z,101703.16
2023-02-04T03:43:42.236Z,101709.64
2023-02-04T03:46:10.700Z,101720.15
2023-02-04T03:48:38.892Z,101731.39
2023-02-04T03:51:07.248Z,101742.09
2023-02-04T03:53:35.832Z,101751.30
2023-02-04T03:56:04.526Z,101762.76
2023-02-04T03:58:32.911Z,101769.63
2023-02-04T04:01:01.474Z,101778.55
2023-02-04T04:03:30.365Z,101782.25
2023-02-04T04:05:58.565Z,101790.56
2023-02-04T04:08:27.425Z,101794.80
2023-02-04T04:10:55.507Z,101802.73
2023-02-04T04:13:23.934Z,101810.36
2023-02-04T04:15:52.346Z,101808.16
2023-02-04T04:18:20.953Z,101804.11
2023-02-04T04:20:49.311Z,101804.02
2023-02-04T04:23:17.892Z,101815.42
2023-02-04T04:25:46.122Z,101817.69
2023-02-04T04:28:15.523Z,101824.23
2023-02-04T04:30:44.156Z,101828.30
2023-02-04T04:33:12.571Z,101827.31
2023-02-04T04:35:40.858Z,101828.23
2023-02-04T04:38:09.270Z,101835.40
2023-02-04T04:40:37.434Z,101843.35
2023-02-04T04:43:07.852Z,101868.48
2023-02-04T04:45:36.402Z,101890.03
2023-02-04T04:48:05.001Z,101897.06
2023-02-04T04:50:33.675Z,101898.66
2023-02-04T04:53:02.546Z,101908.27
2023-02-04T04:55:31.102Z,101917.52
2023-02-04T04:57:59.328Z,101919.65
2023-02-04T05:00:27.696Z,101927.30
2023-02-04T05:02:56.026Z,101926.79
2023-02-04T05:05:24.692Z,101914.84
2023-02-04T05:07:53.922Z,101908.07
2023-02-04T05:10:22.331Z,101913.77
2023-02-04T05:12:50.604Z,101921.41
2023-02-04T05:15:18.893Z,101926.29
2023-02-04T05:17:46.970Z,101932.75
2023-02-04T05:20:15.397Z,101937.17
2023-02-04T05:22:44.186Z,101942.83
2023-02-04T05:25:12.849Z,101949.33
2023-02-04T05:27:41.346Z,101952.12
2023-02-04T05:30:11.830Z,101961.66
2023-02-04T05:32:41.050Z,101963.29
2023-02-04T05:35:09.601Z,101968.30
2023-02-04T05:37:37.906Z,101963.91
2023-02-04T05:40:06.654Z,101972.04
2023-02-04T05:42:35.366Z,101977.58
2023-02-04T05:45:03.698Z,101980.98
2023-02-04T05:47:31.921Z,101982.42
2023-02-04T05:50:00.587Z,101993.28
2023-02-04T05:52:29.171Z,101998.69
2023-02-04T05:54:58.642Z,101999.05
2023-02-04T05:57:26.968Z,102002.89
2023-02-04T05:59:55.448Z,102009.69
2023-02-04T06:02:23.709Z,102016.61
2023-02-04T06:04:52.309Z,102024.85
2023-02-04T06:07:20.505Z,102030.61
2023-02-04T06:09:48.793Z,102035.52
2023-02-04T06:12:17.218Z,102040.48
2023-02-04T06:14:45.628Z,102046.63
2023-02-04T06:17:17.044Z,102043.36
2023-02-04T06:19:45.503Z,102051.61
2023-02-04T06:22:13.910Z,102056.52
2023-02-04T06:24:42.327Z,102061.99
2023-02-04T06:27:10.841Z,102073.59
2023-02-04T06:29:39.280Z,102072.64
2023-02-04T06:32:07.716Z,102064.78
2023-02-04T06:34:36.023Z,102073.86
2023-02-04T06:37:04.351Z,102084.17
2023-02-04T06:39:33.025Z,102084.48
2023-02-04T06:42:01.249Z,102087.32
2023-02-04T06:44:32.105Z,102095.14
2023-02-04T06:47:00.688Z,102100.46
2023-02-04T06:49:29.120Z,102106.92
2023-02-04T06:51:57.487Z,102114.33
2023-02-04T06:54:27.318Z,102123.14
2023-02-04T06:56:56.164Z,102131.48
2023-02-04T06:59:26.469Z,102139.15
2023-02-04T07:01:54.659Z,102147.14
2023-02-04T07:04:24.125Z,102148.89
2023-02-04T07:06:52.595Z,102156.59
2023-02-04T07:09:21.374Z,102162.35
2023-02-04T07:11:49.767Z,102163.84
2023-02-04T07:14:19.326Z,102166.48
2023-02-04T07:16:47.892Z,102173.91
2023-02-04T07:19:17.776Z,102179.11
2023-02-04T07:21:46.863Z,102181.60
2023-02-04T07:24:15.390Z,102182.55
2023-02-04T07:26:44.320Z,102192.08
2023-02-04T07:29:17.605Z,102197.10
2023-02-04T07:31:53.199Z,102204.43
2023-02-04T07:34:21.886Z,102210.79
2023-02-04T07:36:50.240Z,102220.00
2023-02-04T07:39:18.604Z,102216.11
2023-02-04T07:41:47.013Z,102218.49
2023-02-04T07:44:15.552Z,102228.37
2023-02-04T07:46:44.114Z,102229.91
2023-02-04T07:49:12.586Z,102232.52
2023-02-04T07:51:46.302Z,102238.31
2023-02-04T07:54:14.697Z,102246.10
2023-02-04T07:56:42.910Z,102250.69
2023-02-04T07:59:11.439Z,102249.48
2023-02-04T08:01:39.831Z,102256.90
2023-02-04T08:04:08.891Z,102266.19
2023-02-04T08:06:37.258Z,102268.92
2023-02-04T08:09:06.030Z,102270.04
2023-02-04T08:11:34.618Z,102276.86
2023-02-04T08:14:03.056Z,102281.42
2023-02-04T08:16:31.584Z,102294.70
2023-02-04T08:19:00.144Z,102297.58
2023-02-04T08:21:28.800Z,102303.47
2023-02-04T08:23:57.351Z,102300.73
2023-02-04T08:26:25.666Z,102304.09
2023-02-04T08:28:53.741Z,102306.74
2023-02-04T08:31:22.054Z,102309.09
2023-02-04T08:33:50.552Z,102311.95
2023-02-04T08:36:20.917Z,102311.86
2023-02-04T08:38:49.322Z,102320.36
2023-02-04T08:41:18.157Z,102323.19
2023-02-04T08:43:46.488Z,102331.98
2023-02-04T08:46:14.886Z,102329.39
2023-02-04T08:48:43.791Z,102332.13
2023-02-04T08:51:12.971Z,102336.58
2023-02-04T08:53:41.286Z,102340.98
2023-02-04T08:56:10.750Z,102342.77
2023-02-04T08:58:40.069Z,102341.82
2023-02-04T09:01:08.600Z,102341.29
2023-02-04T09:03:38.016Z,102343.74
2023-02-04T09:06:07.767Z,102352.50
2023-02-04T09:08:36.281Z,102355.94
2023-02-04T09:11:05.437Z,102361.60
2023-02-04T09:13:34.104Z,102362.17
2023-02-04T09:16:02.571Z,102364.14
2023-02-04T09:18:32.910Z,102371.68
2023-02-04T09:21:01.692Z,102377.61
2023-02-04T09:23:30.749Z,102376.25
2023-02-04T09:25:59.636Z,102380.70
2023-02-04T09:28:28.162Z,102379.91
2023-02-04T09:30:57.949Z,102386.90
2023-02-04T09:33:26.463Z,102387.14
2023-02-04T09:35:55.680Z,102389.95
2023-02-04T09:38:24.567Z,102396.69
2023-02-04T09:41:00.394Z,102398.66
2023-02-04T09:43:34.009Z,102398.33
2023-02-04T09:46:04.605Z,102402.60
2023-02-04T09:48:33.345Z,102403.56
2023-02-04T09:51:07.918Z,102403.72
2023-02-04T09:53:37.099Z,102402.95
2023-02-04T09:56:05.930Z,102400.48
2023-02-04T09:58:35.723Z,102402.32
2023-02-04T10:01:11.882Z,102404.76
2023-02-04T10:03:46.877Z,102409.41
2023-02-04T10:06:21.434Z,102408.91
2023-02-04T10:08:51.457Z,102411.73
2023-02-04T10:11:22.475Z,102411.70
2023-02-04T10:13:54.371Z,102416.11
2023-02-04T10:16:35.890Z,102412.85
2023-02-04T10:19:08.338Z,102417.77
2023-02-04T10:21:37.396Z,102421.73
2023-02-04T10:24:11.942Z,102426.86
2023-02-04T10:26:40.558Z,102426.50
2023-02-04T10:29:18.410Z,102431.52
2023-02-04T10:31:49.291Z,102431.73
2023-02-04T10:34:35.045Z,102427.83
2023-02-04T10:37:13.148Z,102435.08
2023-02-04T10:39:44.707Z,102435.21
2023-02-04T10:42:25.079Z,102434.93
2023-02-04T10:44:54.348Z,102432.30
2023-02-04T10:47:25.216Z,102435.87
2023-02-04T10:50:00.754Z,102439.09
2023-02-04T10:52:38.484Z,102435.27
2023-02-04T10:55:12.520Z,102440.25
2023-02-04T10:57:42.880Z,102446.97
2023-02-04T11:00:23.852Z,102449.89
2023-02-04T11:03:23.059Z,102449.17
2023-02-04T11:05:52.046Z,102447.05
2023-02-04T11:08:37.854Z,102445.94
2023-02-04T11:11:11.517Z,102444.89
2023-02-04T11:14:02.541Z,102449.27
2023-02-04T11:16:35.811Z,102452.09
2023-02-04T11:19:12.855Z,102449.77
2023-02-04T11:21:42.967Z,102447.98
2023-02-04T11:24:14.553Z,102445.33
2023-02-04T11:26:46.774Z,102449.35
2023-02-04T11:29:31.711Z,102448.48
2023-02-04T11:32:09.251Z,102453.19
2023-02-04T11:34:53.056Z,102452.94
2023-02-04T11:37:28.692Z,102459.84
2023-02-04T11:40:02.110Z,102463.73
2023-02-04T11:42:42.290Z,102459.33
2023-02-04T11:45:15.530Z,102460.49
2023-02-04T11:47:45.653Z,102464.98
2023-02-04T11:50:22.852Z,102463.77
2023-02-04T11:52:52.165Z,102459.71
2023-02-04T11:55:21.158Z,102459.33
2023-02-04T11:57:53.858Z,102452.59
2023-02-04T12:00:31.336Z,102457.85
2023-02-04T12:03:04.796Z,102451.08
2023-02-04T12:05:43.144Z,102458.45
2023-02-04T12:08:25.244Z,102449.10
2023-02-04T12:11:13.765Z,102453.84
2023-02-04T12:13:51.223Z,102456.92
2023-02-04T12:16:23.599Z,102461.55
2023-02-04T12:18:52.135Z,102462.98
2023-02-04T12:21:21.421Z,102460.52
2023-02-04T12:23:49.756Z,102458.57
2023-02-04T12:26:18.256Z,102456.37
2023-02-04T12:28:46.460Z,102455.09
2023-02-04T12:31:15.790Z,102451.86
2023-02-04T12:33:44.437Z,102456.12
2023-02-04T12:36:13.058Z,102451.67
2023-02-04T12:38:41.652Z,102454.91
2023-02-04T12:41:10.538Z,102456.05
2023-02-04T12:43:39.663Z,102454.42
2023-02-04T12:46:08.266Z,102456.42
2023-02-04T12:48:41.151Z,102458.98
2023-02-04T12:51:10.125Z,102465.62
2023-02-04T12:53:38.789Z,102476.10
2023-02-04T12:56:07.201Z,102478.81
2023-02-04T12:58:40.661Z,102489.94
2023-02-04T13:01:09.033Z,102499.90
2023-02-04T13:03:37.189Z,102508.09
2023-02-04T13:06:05.916Z,102515.77
2023-02-04T13:08:35.456Z,102520.73
2023-02-04T13:11:04.012Z,102516.38
2023-02-04T13:13:32.376Z,102519.15
2023-02-04T13:16:00.595Z,102524.55
2023-02-04T13:18:29.106Z,102524.15
2023-02-04T13:20:57.502Z,102522.46
2023-02-04T13:23:25.838Z,102522.73
2023-02-04T13:25:54.393Z,102528.25
2023-02-04T13:28:23.042Z,102529.53
2023-02-04T13:30:51.914Z,102525.61
2023-02-04T13:33:20.453Z,102526.14
2023-02-04T13:35:49.008Z,102529.59
2023-02-04T13:38:17.574Z,102543.48
2023-02-04T13:40:46.057Z,102553.01
2023-02-04T13:43:16.090Z,102559.27
2023-02-04T13:45:49.305Z,102564.81
2023-02-04T13:48:17.654Z,102563.19
2023-02-04T13:50:46.302Z,102565.95
2023-02-04T13:53:14.411Z,102571.63
2023-02-04T13:55:42.870Z,102574.60
2023-02-04T13:58:11.636Z,102569.36
2023-02-04T14:00:40.052Z,102569.54
2023-02-04T14:03:08.267Z,102575.45
2023-02-04T14:05:37.009Z,102577.50
2023-02-04T14:08:05.470Z,102578.67
2023-02-04T14:10:35.186Z,102589.52
2023-02-04T14:13:05.122Z,102584.83
2023-02-04T14:15:35.746Z,102573.23
2023-02-04T14:18:05.347Z,102577.08
2023-02-04T14:20:34.372Z,102582.66
2023-02-04T14:23:04.444Z,102589.37
2023-02-04T14:25:32.680Z,102588.46
2023-02-04T14:28:01.860Z,102584.78
2023-02-04T14:30:31.995Z,102585.11
2023-02-04T14:33:01.737Z,102582.48
2023-02-04T14:35:30.586Z,102580.45
2023-02-04T14:37:59.152Z,102582.06
2023-02-04T14:40:28.120Z,102582.23
2023-02-04T14:42:56.694Z,102586.54
2023-02-04T14:45:25.026Z,102594.24
2023-02-04T14:47:57.422Z,102597.48
2023-02-04T14:50:27.598Z,102598.66
2023-02-04T14:52:57.255Z,102602.64
2023-02-04T14:55:26.857Z,102606.92
2023-02-04T14:57:56.050Z,102610.84
2023-02-04T15:00:24.646Z,102606.52
2023-02-04T15:02:54.261Z,102607.31
2023-02-04T15:05:22.757Z,102611.14
2023-02-04T15:07:51.143Z,102617.98
2023-02-04T15:10:19.585Z,102625.05
2023-02-04T15:12:48.117Z,102634.30
2023-02-04T15:15:16.268Z,102631.98
2023-02-04T15:17:45.155Z,102638.58
2023-02-04T15:20:13.695Z,102647.46
2023-02-04T15:22:42.239Z,102653.95
2023-02-04T15:25:15.275Z,102651.44
2023-02-04T15:27:43.646Z,102659.16
2023-02-04T15:30:13.583Z,102660.48
2023-02-04T15:32:43.732Z,102659.05
2023-02-04T15:35:13.782Z,102664.21
2023-02-04T15:37:42.075Z,102673.51
2023-02-04T15:40:11.998Z,102675.08
2023-02-04T15:42:40.313Z,102680.34
2023-02-04T15:45:09.046Z,102682.86
2023-02-04T15:47:37.588Z,102687.34
2023-02-04T15:50:11.049Z,102689.93
2023-02-04T15:52:39.233Z,102690.17
2023-02-04T15:55:08.046Z,102698.36
2023-02-04T15:57:37.119Z,102702.05
2023-02-04T16:00:07.029Z,102701.62
2023-02-04T16:02:35.778Z,102707.96
2023-02-04T16:05:05.001Z,102711.97
2023-02-04T16:07:33.937Z,102720.16
2023-02-04T16:10:02.509Z,102722.46
2023-02-04T16:12:31.131Z,102730.63
2023-02-04T16:15:02.487Z,102733.92
2023-02-04T16:17:33.548Z,102742.98
2023-02-04T16:20:04.012Z,102748.05
2023-02-04T16:22:32.467Z,102752.63
2023-02-04T16:25:00.825Z,102749.60
2023-02-04T16:27:33.951Z,102751.13
2023-02-04T16:30:02.934Z,102759.09
2023-02-04T16:32:34.140Z,102760.30
2023-02-04T16:35:04.623Z,102761.61
2023-02-04T16:37:34.423Z,102764.88
2023-02-04T16:40:02.847Z,102767.44
2023-02-04T16:42:31.711Z,102768.74
2023-02-04T16:45:00.401Z,102768.59
2023-02-04T16:47:28.961Z,102769.81
2023-02-04T16:50:01.190Z,102769.41
2023-02-04T16:52:29.998Z,102772.09
2023-02-04T16:54:59.614Z,102770.90
2023-02-04T16:57:28.028Z,102770.79
2023-02-04T16:59:57.081Z,102778.15
2023-02-04T17:02:25.761Z,102777.86
2023-02-04T17:04:54.002Z,102781.38
2023-02-04T17:07:22.286Z,102781.69
2023-02-04T17:09:51.933Z,102784.85
2023-02-04T17:12:23.323Z,102782.09
2023-02-04T17:14:51.667Z,102781.98
2023-02-04T17:17:20.108Z,102781.05
2023-02-04T17:19:48.616Z,102782.54
2023-02-04T17:22:16.938Z,102783.14
2023-02-04T17:24:45.389Z,102788.21
2023-02-04T17:27:13.683Z,102785.23
2023-02-04T17:29:42.198Z,102792.12
2023-02-04T17:32:12.721Z,102791.13
2023-02-04T17:34:41.086Z,102796.25
2023-02-04T17:37:12.369Z,102797.67
2023-02-04T17:39:40.658Z,102796.54
2023-02-04T17:42:09.058Z,102796.91
2023-02-04T17:44:38.658Z,102789.37
2023-02-04T17:47:07.082Z,102792.48
2023-02-04T17:49:35.481Z,102799.12
2023-02-04T17:52:05.890Z,102799.92
2023-02-04T17:54:34.459Z,102801.75
2023-02-04T17:57:19.191Z,102801.29
2023-02-04T17:59:49.908Z,102798.33
2023-02-04T18:02:30.756Z,102793.95
2023-02-04T18:05:01.410Z,102790.58
2023-02-04T18:07:30.402Z,102781.83
2023-02-04T18:10:18.351Z,102781.67
2023-02-04T18:12:46.627Z,102778.20
2023-02-04T18:15:32.393Z,102780.77
2023-02-04T18:18:13.559Z,102785.81
2023-02-04T18:20:41.823Z,102789.02
2023-02-04T18:23:19.183Z,102787.77
2023-02-04T18:25:49.180Z,102793.23
2023-02-04T18:28:20.515Z,102791.91
2023-02-04T18:30:53.504Z,102792.20
2023-02-04T18:33:27.370Z,102790.70
2023-02-04T18:36:02.867Z,102793.50
2023-02-04T18:38:39.479Z,102797.32
2023-02-04T18:41:27.942Z,102795.36
2023-02-04T18:44:02.807Z,102796.55
2023-02-04T18:46:37.562Z,102795.63
2023-02-04T18:49:33.005Z,102798.77
2023-02-04T18:52:15.469Z,102802.10
2023-02-04T18:54:53.240Z,102804.33
2023-02-04T18:57:39.932Z,102805.95
2023-02-04T19:00:12.145Z,102806.47
2023-02-04T19:03:00.799Z,102809.99
2023-02-04T19:05:37.815Z,102805.61
2023-02-04T19:08:06.377Z,102811.84
2023-02-04T19:10:40.225Z,102815.98
2023-02-04T19:13:26.269Z,102814.95
2023-02-04T19:16:16.994Z,102812.16
2023-02-04T19:18:47.438Z,102816.55
2023-02-04T19:21:22.754Z,102816.27
2023-02-04T19:24:13.156Z,102825.62
2023-02-04T19:26:53.780Z,102837.39
2023-02-04T19:29:31.111Z,102843.64
2023-02-04T19:32:09.672Z,102850.79
2023-02-04T19:34:40.404Z,102852.10
2023-02-04T19:37:39.164Z,102847.85
2023-02-04T19:40:38.139Z,102849.61
2023-02-04T19:43:21.552Z,102849.55
2023-02-04T19:45:51.409Z,102857.06
2023-02-04T19:48:38.614Z,102862.83
2023-02-04T19:51:28.069Z,102864.57
2023-02-04T19:54:02.958Z,102853.98
2023-02-04T19:56:36.179Z,102860.64
2023-02-04T19:59:30.747Z,102859.52
2023-02-04T20:02:08.499Z,102860.78
2023-02-04T20:04:42.270Z,102862.13
2023-02-04T20:07:23.501Z,102856.64
2023-02-04T20:10:24.597Z,102863.02
2023-02-04T20:12:59.301Z,102871.08
2023-02-04T20:15:27.572Z,102872.11
2023-02-04T20:18:07.186Z,102876.23
2023-02-04T20:20:39.235Z,102883.95
2023-02-04T20:23:22.862Z,102884.25
2023-02-04T20:25:51.211Z,102884.50
2023-02-04T20:28:23.325Z,102886.10
2023-02-04T20:30:53.330Z,102883.89
2023-02-04T20:33:30.589Z,102880.98
2023-02-04T20:36:26.781Z,102884.95
2023-02-04T20:39:24.416Z,102887.86
2023-02-04T20:41:53.055Z,102884.20
2023-02-04T20:44:40.574Z,102887.84
2023-02-04T20:47:18.486Z,102897.22
2023-02-04T20:49:57.198Z,102900.52
2023-02-04T20:52:40.788Z,102904.16
2023-02-04T20:55:34.352Z,102908.77
2023-02-04T20:58:14.902Z,102915.23
2023-02-04T21:00:45.287Z,102924.14
2023-02-04T21:03:21.873Z,102929.31
2023-02-04T21:05:52.834Z,102930.99
2023-02-04T21:08:33.524Z,102934.33
2023-02-04T21:11:05.931Z,102938.09
2023-02-04T21:13:34.958Z,102938.56
2023-02-04T21:16:04.611Z,102939.40
2023-02-04T21:18:34.920Z,102947.92
2023-02-04T21:21:07.573Z,102955.39
2023-02-04T21:23:44.245Z,102963.35
2023-02-04T21:26:12.883Z,102966.27
2023-02-04T21:28:41.633Z,102970.21
2023-02-04T21:31:11.774Z,102967.77
2023-02-04T21:33:42.198Z,102972.44
2023-02-04T21:36:10.669Z,102974.91
2023-02-04T21:38:39.221Z,102977.77
2023-02-04T21:41:07.309Z,102980.63
2023-02-04T21:43:35.626Z,102982.78
2023-02-04T21:46:05.113Z,102982.37
2023-02-04T21:48:34.543Z,102981.92
2023-02-04T21:51:03.179Z,102984.84
2023-02-04T21:53:32.042Z,102989.27
2023-02-04T21:56:00.336Z,102996.31
2023-02-04T21:58:29.333Z,103001.98
2023-02-04T22:00:57.785Z,103009.45
2023-02-04T22:03:27.343Z,103020.08
2023-02-04T22:05:55.925Z,103020.84
2023-02-04T22:08:24.924Z,103022.23
2023-02-04T22:10:53.162Z,103024.86
2023-02-04T22:13:21.915Z,103028.01
2023-02-04T22:15:50.723Z,103028.48
2023-02-04T22:18:20.645Z,103029.08
2023-02-04T22:20:49.517Z,103029.11
2023-02-04T22:23:20.824Z,103032.55
2023-02-04T22:25:49.189Z,103031.21
2023-02-04T22:28:17.937Z,103034.67
2023-02-04T22:30:50.045Z,103032.07
2023-02-04T22:33:18.759Z,103030.05
2023-02-04T22:35:49.033Z,103025.40
2023-02-04T22:38:21.259Z,103019.63
2023-02-04T22:40:50.394Z,103019.79
2023-02-04T22:43:18.703Z,103016.52
2023-02-04T22:45:48.095Z,103018.56
2023-02-04T22:48:19.501Z,103021.77
2023-02-04T22:50:48.276Z,103027.61
2023-02-04T22:53:16.782Z,103027.94
2023-02-04T22:55:45.255Z,103033.91
2023-02-04T22:58:14.124Z,103034.98
2023-02-04T23:00:42.503Z,103039.86
2023-02-04T23:03:10.895Z,103042.31
2023-02-04T23:05:39.697Z,103047.56
2023-02-04T23:08:08.155Z,103054.09
2023-02-04T23:10:38.812Z,103058.14
2023-02-04T23:13:07.544Z,103058.50
2023-02-04T23:15:39.394Z,103063.11
2023-02-04T23:18:07.905Z,103060.34
2023-02-04T23:20:38.258Z,103062.04
2023-02-04T23:23:07.661Z,103065.41
2023-02-04T23:25:36.697Z,103062.76
2023-02-04T23:28:05.273Z,103056.19
2023-02-04T23:30:36.727Z,103057.45
2023-02-04T23:33:05.310Z,103057.02
2023-02-04T23:35:34.445Z,103056.52
2023-02-04T23:38:03.530Z,103059.61
2023-02-04T23:40:32.840Z,103058.39
2023-02-04T23:43:01.157Z,103058.89
2023-02-04T23:45:29.977Z,103055.64
2023-02-04T23:47:58.927Z,103056.33
2023-02-04T23:50:27.270Z,103056.92
2023-02-04T23:52:56.691Z,103056.06
2023-02-04T23:55:28.722Z,103054.08
2023-02-04T23:57:57.226Z,103054.33
